Time;durP1;ratioP1;P1;durP2;ratioP2;P2;SDS_P1;SDS_P2;PMS_P1;PMS_P2;Temp;Humidity;BMP_temperature;BMP_pressure;BME280_temperature;BME280_humidity;BME280_pressure;Samples;Min_cycle;Max_cycle;Signal;HPM_P1;HPM_P2
2022/03/28 00:02:00;;;;;;;128.38;93.07;;;;;;;5.95;100.00;102262.25;5046486;28;20132;-79
2022/03/28 00:04:27;;;;;;;54.92;50.80;;;;;;;5.91;100.00;102255.56;5053724;28;20053;-78
2022/03/28 00:06:54;;;;;;;98.22;80.22;;;;;;;5.85;100.00;102255.28;5054374;28;20452;-78
2022/03/28 00:09:22;;;;;;;63.58;58.92;;;;;;;5.90;100.00;102264.44;5055772;28;20060;-77
2022/03/28 00:11:48;;;;;;;64.65;59.75;;;;;;;5.87;100.00;102259.44;5057459;28;20041;-79
2022/03/28 00:14:15;;;;;;;60.15;55.42;;;;;;;5.85;100.00;102256.09;5048977;28;20059;-79
2022/03/28 00:16:46;;;;;;;50.05;45.65;;;;;;;5.85;100.00;102256.09;5058014;28;20045;-79
2022/03/28 00:19:15;;;;;;;51.63;47.08;;;;;;;6.04;100.00;102260.56;5057018;28;20029;-77
2022/03/28 00:21:44;;;;;;;79.07;68.30;;;;;;;5.86;100.00;102259.56;5049700;28;20111;-81
2022/03/28 00:24:10;;;;;;;53.88;49.58;;;;;;;5.89;100.00;102264.56;5051934;28;20118;-78
2022/03/28 00:26:37;;;;;;;59.13;55.13;;;;;;;5.88;100.00;102253.19;5058932;28;20041;-78
2022/03/28 00:29:04;;;;;;;55.28;51.47;;;;;;;5.83;100.00;102260.66;5060163;28;20515;-79
2022/03/28 00:31:31;;;;;;;83.38;75.70;;;;;;;5.74;100.00;102258.84;5059839;28;20140;-77
2022/03/28 00:33:57;;;;;;;81.10;73.78;;;;;;;5.64;100.00;102256.22;5063784;28;20071;-80
2022/03/28 00:36:26;;;;;;;61.67;56.65;;;;;;;5.62;100.00;102258.13;5058327;28;20049;-79
2022/03/28 00:38:52;;;;;;;51.80;47.92;;;;;;;5.61;100.00;102251.22;5052870;28;20053;-79
2022/03/28 00:41:20;;;;;;;55.38;51.47;;;;;;;5.62;100.00;102250.22;5053486;28;20061;-79
2022/03/28 00:43:55;;;;;;;46.13;42.80;;;;;;;5.62;100.00;102244.97;5052567;28;20049;-79
2022/03/28 00:46:22;;;;;;;81.05;61.63;;;;;;;5.44;100.00;102249.22;5057951;28;20075;-79
2022/03/28 00:48:49;;;;;;;51.47;47.95;;;;;;;5.30;100.00;102239.91;5049938;28;20041;-78
2022/03/28 00:51:17;;;;;;;62.72;57.78;;;;;;;5.51;100.00;102239.81;5048591;28;20112;-79
2022/03/28 00:53:47;;;;;;;52.60;48.60;;;;;;;5.53;100.00;102248.41;5057943;28;20546;-79
2022/03/28 00:56:15;;;;;;;48.35;45.25;;;;;;;5.51;100.00;102248.56;5054732;28;20117;-79
2022/03/28 00:58:42;;;;;;;60.72;56.85;;;;;;;5.47;100.00;102241.88;5056967;28;20049;-78
2022/03/28 01:01:10;;;;;;;51.50;47.53;;;;;;;5.54;100.00;102239.56;5057620;28;20049;-79
2022/03/28 01:03:37;;;;;;;59.25;54.10;;;;;;;5.58;100.00;102238.31;5052565;28;20434;-79
2022/03/28 01:06:04;;;;;;;51.33;47.80;;;;;;;5.48;100.00;102240.91;5046848;28;20052;-78
2022/03/28 01:08:32;;;;;;;49.25;45.88;;;;;;;5.46;100.00;102244.66;5056272;28;20128;-79
2022/03/28 01:11:04;;;;;;;48.50;45.10;;;;;;;5.47;100.00;102241.03;5056848;28;20057;-81
2022/03/28 01:13:33;;;;;;;57.08;52.55;;;;;;;5.51;100.00;102238.00;5051050;28;20045;-79
2022/03/28 01:15:59;;;;;;;55.83;51.85;;;;;;;5.53;100.00;102240.50;5061301;28;20045;-77
2022/03/28 01:18:25;;;;;;;53.97;49.58;;;;;;;5.45;100.00;102241.19;5057016;28;20048;-79
2022/03/28 01:20:55;;;;;;;53.78;49.20;;;;;;;5.42;100.00;102241.47;5057853;28;20200;-79
2022/03/28 01:23:22;;;;;;;52.25;48.42;;;;;;;5.37;100.00;102243.66;5052917;28;20040;-79
2022/03/28 01:25:51;;;;;;;47.13;43.42;;;;;;;5.35;100.00;102247.38;5050904;28;20478;-79
2022/03/28 01:28:19;;;;;;;50.30;46.90;;;;;;;5.28;100.00;102255.00;5048205;28;20049;-79
2022/03/28 01:30:46;;;;;;;50.08;46.10;;;;;;;5.25;100.00;102256.09;5057263;28;20445;-78
2022/03/28 01:33:12;;;;;;;50.92;47.53;;;;;;;5.24;100.00;102256.25;5058039;28;20045;-78
2022/03/28 01:35:41;;;;;;;56.40;52.55;;;;;;;5.30;100.00;102255.72;5052706;28;20095;-79
2022/03/28 01:38:11;;;;;;;54.25;50.08;;;;;;;5.31;100.00;102252.09;5050990;28;20057;-81
2022/03/28 01:40:43;;;;;;;53.28;48.75;;;;;;;5.22;100.00;102251.09;5058164;28;20045;-79
2022/03/28 01:43:10;;;;;;;54.45;50.60;;;;;;;5.24;100.00;102259.72;5054314;28;20139;-80
2022/03/28 01:45:37;;;;;;;54.03;49.95;;;;;;;5.21;100.00;102264.41;5052475;28;20466;-81
2022/03/28 01:48:06;;;;;;;66.18;59.95;;;;;;;5.18;100.00;102262.03;5057884;28;20125;-79
2022/03/28 01:50:33;;;;;;;52.97;48.10;;;;;;;5.26;100.00;102262.19;5049979;28;20041;-78
2022/03/28 01:53:00;;;;;;;56.10;51.50;;;;;;;5.23;100.00;102260.69;5050393;28;20371;-80
2022/03/28 01:55:28;;;;;;;53.53;49.50;;;;;;;5.18;100.00;102260.25;5049550;28;20106;-79
2022/03/28 01:57:55;;;;;;;53.38;49.13;;;;;;;5.18;100.00;102251.50;5057893;28;20037;-81
2022/03/28 05:20:08;;;;;;;75.35;69.03;;;;;;;4.74;100.00;102303.53;5086525;27;20380;-80
2022/03/28 05:25:08;;;;;;;74.60;68.73;;;;;;;4.96;99.75;102299.91;4963611;28;20054;-80
2022/03/28 05:27:42;;;;;;;75.72;70.00;;;;;;;5.14;99.10;102297.50;4991034;28;20709;-80
2022/03/28 05:30:10;;;;;;;73.78;68.05;;;;;;;5.24;98.62;102287.84;4997026;28;20060;-79
2022/03/28 05:32:38;;;;;;;74.68;68.70;;;;;;;5.61;96.81;102298.66;4987512;28;20124;-80
2022/03/28 05:35:08;;;;;;;77.53;71.10;;;;;;;5.59;91.90;102302.38;4990545;28;20046;-80
2022/03/28 05:41:10;;;;;;;71.32;65.90;;;;;;;6.04;90.61;102304.59;5193003;22;20033;31
2022/03/28 05:43:37;;;;;;;77.57;71.10;;;;;;;6.16;90.53;102295.56;5044257;22;20050;-81
2022/03/28 05:46:06;;;;;;;79.95;72.93;;;;;;;6.36;87.67;102294.63;5026117;28;20040;-78
2022/03/28 05:51:08;;;;;;;78.60;71.35;;;;;;;6.42;85.60;102291.41;5015625;28;20050;-80
2022/03/28 05:53:42;;;;;;;75.25;69.10;;;;;;;6.60;85.50;102296.00;5009378;28;20124;-81
2022/03/28 05:56:09;;;;;;;74.50;68.05;;;;;;;6.81;84.48;102288.72;5071691;23;20053;-81
2022/03/28 05:58:36;;;;;;;73.93;67.40;;;;;;;7.01;84.97;102288.66;5177504;23;20096;-81
2022/03/28 06:01:03;;;;;;;86.75;79.75;;;;;;;7.28;88.16;102286.03;5044375;28;20102;-82
2022/03/28 06:03:30;;;;;;;93.05;84.93;;;;;;;7.37;83.84;102281.69;4978228;28;20614;-81
2022/03/28 06:05:57;;;;;;;91.45;83.95;;;;;;;7.55;83.60;102282.56;5043664;28;20049;-83
2022/03/28 06:08:26;;;;;;;83.47;77.07;;;;;;;7.69;83.12;102283.06;5043313;28;20045;-82
2022/03/28 06:10:53;;;;;;;83.13;76.30;;;;;;;7.93;82.46;102282.50;5039505;28;20562;-79
2022/03/28 06:13:20;;;;;;;81.82;75.28;;;;;;;8.22;82.15;102288.38;5045927;28;20111;-80
2022/03/28 06:15:49;;;;;;;79.75;72.70;;;;;;;8.34;81.81;102296.91;5047565;28;20870;-81
2022/03/28 06:18:16;;;;;;;78.93;72.07;;;;;;;8.66;82.40;102290.25;5046291;28;20041;-84
2022/03/28 06:20:43;;;;;;;77.93;71.38;;;;;;;8.47;81.01;102296.53;5045308;28;20045;-85
2022/03/28 06:23:12;;;;;;;81.00;74.45;;;;;;;8.49;80.23;102290.13;5041651;28;20133;-85
2022/03/28 06:25:41;;;;;;;78.13;71.50;;;;;;;8.90;81.01;102298.34;5042624;28;20045;-83
2022/03/28 06:28:10;;;;;;;86.53;79.38;;;;;;;8.83;79.88;102299.94;5038646;28;20095;-82
2022/03/28 06:30:37;;;;;;;87.55;80.57;;;;;;;8.92;80.82;102304.31;5034566;28;20346;-79
2022/03/28 06:33:03;;;;;;;87.40;80.53;;;;;;;9.17;82.87;102310.59;5022090;28;20053;-83
2022/03/28 06:35:30;;;;;;;81.57;75.13;;;;;;;9.35;82.83;102284.00;5027594;28;20050;-83
2022/03/28 06:37:57;;;;;;;87.28;80.35;;;;;;;9.61;80.33;102296.34;5030042;28;20049;-81
2022/03/28 06:40:24;;;;;;;82.40;75.72;;;;;;;9.80;79.78;102290.78;5021199;28;20053;-82
2022/03/28 06:42:52;;;;;;;80.15;73.35;;;;;;;9.91;80.51;102283.50;5029239;28;20045;-80
2022/03/28 06:45:19;;;;;;;81.70;75.10;;;;;;;10.05;79.34;102293.50;5033070;28;20119;-83
2022/03/28 06:47:51;;;;;;;84.13;77.30;;;;;;;10.26;79.36;102288.56;5029237;28;20509;-84
2022/03/28 06:50:18;;;;;;;84.70;77.68;;;;;;;10.30;78.24;102287.22;5027607;28;20053;-80
2022/03/28 06:52:45;;;;;;;85.63;79.03;;;;;;;10.56;77.74;102280.91;5031502;28;20264;-81
2022/03/28 06:55:12;;;;;;;82.30;75.05;;;;;;;10.81;76.54;102288.84;5027858;28;20045;-85
2022/03/28 06:57:39;;;;;;;76.45;70.38;;;;;;;10.73;76.01;102282.53;5027059;28;20053;-80
2022/03/28 07:00:10;;;;;;;80.60;73.93;;;;;;;11.04;74.96;102283.63;5033053;28;20099;-80
2022/03/28 07:02:37;;;;;;;76.00;69.20;;;;;;;10.97;74.82;102280.81;5023837;28;20053;-85
2022/03/28 07:05:04;;;;;;;71.15;65.18;;;;;;;11.12;74.23;102280.94;5031366;28;20490;-84
2022/03/28 07:07:39;;;;;;;75.65;69.50;;;;;;;10.98;73.94;102282.47;5030951;28;20046;-85
2022/03/28 07:10:07;;;;;;;79.85;72.78;;;;;;;11.28;73.98;102275.56;5017921;28;20504;-82
2022/03/28 07:12:34;;;;;;;82.65;75.70;;;;;;;11.34;75.02;102277.53;5022950;28;20045;-82
2022/03/28 07:15:01;;;;;;;77.95;70.88;;;;;;;11.87;74.87;102275.13;5031672;28;20050;-80
2022/03/28 07:17:29;;;;;;;81.05;73.93;;;;;;;11.83;73.94;102284.44;5030812;28;20049;-85
2022/03/28 07:19:56;;;;;;;82.50;75.40;;;;;;;11.78;71.80;102279.66;5019269;28;20046;-84
2022/03/28 07:22:22;;;;;;;80.78;73.63;;;;;;;12.10;73.74;102278.63;5024124;28;20107;-82
2022/03/28 07:24:50;;;;;;;81.55;74.40;;;;;;;12.61;73.61;102283.34;5026048;28;20046;-82
2022/03/28 07:27:17;;;;;;;77.97;70.82;;;;;;;12.66;73.42;102278.31;5028319;28;20061;-82
2022/03/28 07:29:44;;;;;;;79.50;72.50;;;;;;;12.76;69.99;102275.38;5024642;28;20103;-84
2022/03/28 07:32:10;;;;;;;76.20;69.22;;;;;;;12.19;69.81;102273.22;5029161;28;20053;-84
2022/03/28 07:34:39;;;;;;;86.60;78.05;;;;;;;13.24;76.20;102266.00;5021156;28;20046;-81
2022/03/28 07:37:06;;;;;;;80.55;73.47;;;;;;;13.60;72.27;102273.22;5023115;28;20552;-85
2022/03/28 07:39:34;;;;;;;77.15;70.07;;;;;;;13.50;71.74;102270.88;5019790;28;20045;-82
2022/03/28 07:42:02;;;;;;;85.05;78.05;;;;;;;13.67;68.64;102265.28;5022278;28;20571;-83
2022/03/28 07:44:29;;;;;;;82.20;75.32;;;;;;;13.01;67.81;102274.13;5023975;28;20114;-83
2022/03/28 07:46:55;;;;;;;83.07;75.90;;;;;;;12.10;69.13;102262.66;5029380;28;20049;-84
2022/03/28 07:49:24;;;;;;;81.80;74.90;;;;;;;12.18;71.40;102260.94;5026980;28;20056;-83
2022/03/28 07:51:52;;;;;;;81.15;74.05;;;;;;;13.29;69.07;102249.47;5025636;28;20438;-83
2022/03/28 07:54:19;;;;;;;89.10;81.63;;;;;;;12.99;68.05;102251.31;5020731;28;20046;-83
2022/03/28 07:56:46;;;;;;;83.00;76.32;;;;;;;13.44;69.92;102249.44;5021324;28;20050;-81
2022/03/28 07:59:13;;;;;;;86.35;79.22;;;;;;;13.03;70.73;102266.75;5021194;28;20061;-83
2022/03/28 08:01:40;;;;;;;86.38;79.35;;;;;;;13.94;72.09;102247.69;5017658;28;20472;-82
2022/03/28 08:04:07;;;;;;;76.72;69.25;;;;;;;14.68;68.50;102249.16;5021400;28;20060;-85
2022/03/28 08:06:34;;;;;;;74.78;68.20;;;;;;;15.05;65.95;102250.59;5019514;28;20046;-83
2022/03/28 08:09:02;;;;;;;73.97;68.00;;;;;;;13.83;68.03;102238.38;5022010;28;20566;-85
2022/03/28 08:11:29;;;;;;;88.75;81.40;;;;;;;13.38;67.13;102240.34;5021433;28;20053;-85
2022/03/28 08:13:56;;;;;;;95.38;87.65;;;;;;;13.70;66.76;102235.53;5021816;28;20520;-85
2022/03/28 08:16:23;;;;;;;82.03;74.60;;;;;;;12.74;66.46;102234.75;5027047;28;20100;-82
2022/03/28 08:18:50;;;;;;;77.78;71.00;;;;;;;12.89;66.62;102235.59;5024236;28;20115;-84
2022/03/28 08:21:17;;;;;;;81.30;73.90;;;;;;;13.28;65.99;102227.31;5021517;28;20054;-85
2022/03/28 08:23:43;;;;;;;75.88;69.18;;;;;;;14.03;68.13;102227.03;5021779;28;20497;-83
2022/03/28 08:26:11;;;;;;;74.43;68.07;;;;;;;13.79;64.69;102214.88;5020404;28;20049;-83
2022/03/28 08:28:39;;;;;;;88.88;81.65;;;;;;;13.55;67.27;102218.75;5020167;28;20525;-85
2022/03/28 08:31:06;;;;;;;88.30;81.25;;;;;;;12.81;74.79;102223.16;5027542;28;20073;-81
2022/03/28 08:33:33;;;;;;;91.47;84.07;;;;;;;13.65;70.36;102219.28;5023081;28;20050;-81
2022/03/28 08:36:00;;;;;;;81.90;75.53;;;;;;;13.88;65.42;102213.75;5022055;28;20183;-82
2022/03/28 08:38:27;;;;;;;80.95;74.55;;;;;;;13.80;67.96;102214.72;5020997;28;20406;-83
2022/03/28 08:40:55;;;;;;;92.80;85.07;;;;;;;13.39;71.36;102220.63;5022970;28;20072;-80
2022/03/28 08:43:24;;;;;;;86.63;78.72;;;;;;;13.38;66.90;102216.31;5022836;28;20121;-84
2022/03/28 08:45:51;;;;;;;90.03;82.75;;;;;;;14.83;66.17;102210.56;5012975;28;20064;-85
2022/03/28 08:48:19;;;;;;;90.18;83.32;;;;;;;14.44;62.52;102203.09;5021193;28;20038;-83
2022/03/28 08:50:49;;;;;;;84.25;77.10;;;;;;;14.56;66.09;102195.41;5020323;28;20053;-81
2022/03/28 08:53:17;;;;;;;79.82;74.10;;;;;;;13.96;64.33;102200.28;5022167;28;20600;-84
2022/03/28 08:55:46;;;;;;;78.93;73.13;;;;;;;15.17;62.57;102197.34;5022818;28;20055;-81
2022/03/28 08:58:13;;;;;;;68.32;63.10;;;;;;;15.32;61.19;102196.16;5022298;28;20123;-82
2022/03/28 09:00:42;;;;;;;68.60;63.30;;;;;;;16.00;67.58;102184.53;5011368;28;20057;-81
2022/03/28 09:03:09;;;;;;;74.43;68.90;;;;;;;16.94;62.74;102186.88;5019574;28;20049;-82
2022/03/28 09:05:39;;;;;;;68.88;63.35;;;;;;;14.34;61.48;102176.72;5024933;28;20053;-84
2022/03/28 09:08:08;;;;;;;71.50;65.30;;;;;;;15.19;63.21;102174.72;5019260;28;20080;-82
2022/03/28 09:10:35;;;;;;;68.53;63.03;;;;;;;16.98;64.95;102176.53;5019049;28;20507;-81
2022/03/28 09:13:04;;;;;;;68.63;63.08;;;;;;;16.95;56.54;102176.97;5020948;28;20057;-83
2022/03/28 09:15:45;;;;;;;71.43;65.43;;;;;;;17.41;58.88;102157.09;5012534;28;20046;-84
2022/03/28 09:18:20;;;;;;;69.43;63.72;;;;;;;16.22;60.85;102169.91;5020258;28;20053;-84
2022/03/28 09:20:50;;;;;;;70.30;64.65;;;;;;;17.26;55.04;102164.63;5022277;28;20046;-83
2022/03/28 09:23:42;;;;;;;70.47;64.88;;;;;;;17.60;58.24;102156.13;5023764;28;20139;-84
2022/03/28 09:26:16;;;;;;;66.57;61.28;;;;;;;18.50;52.73;102163.81;5008586;28;20049;-84
2022/03/28 09:28:48;;;;;;;67.45;61.78;;;;;;;18.25;55.62;102155.00;5029686;28;20057;-80
2022/03/28 09:31:22;;;;;;;70.18;64.78;;;;;;;19.32;53.48;102149.97;5028434;28;20062;-85
2022/03/28 09:33:57;;;;;;;74.85;69.20;;;;;;;17.13;54.97;102149.41;5024029;28;20504;-83
2022/03/28 09:36:39;;;;;;;76.63;69.97;;;;;;;17.13;54.08;102138.69;5025416;28;20045;-84
2022/03/28 09:39:09;;;;;;;77.80;70.95;;;;;;;16.02;59.37;102142.28;5025383;28;20069;-82
2022/03/28 09:41:37;;;;;;;72.78;66.95;;;;;;;15.85;56.83;102144.56;5019057;28;20149;-81
2022/03/28 09:44:04;;;;;;;71.63;66.03;;;;;;;17.52;54.57;102129.53;5022697;28;20104;-85
2022/03/28 09:46:34;;;;;;;67.00;61.88;;;;;;;19.05;51.98;102117.22;5027009;28;20494;-84
2022/03/28 09:49:00;;;;;;;69.03;63.45;;;;;;;18.40;51.84;102119.69;5027004;28;20107;-82
2022/03/28 09:51:28;;;;;;;74.97;69.13;;;;;;;18.86;49.30;102113.75;5024770;28;20038;-82
2022/03/28 09:53:55;;;;;;;77.70;71.60;;;;;;;19.40;48.29;102114.66;5021317;28;20050;-85
2022/03/28 09:56:22;;;;;;;73.32;67.32;;;;;;;19.50;49.25;102113.25;5022652;28;20041;-82
2022/03/28 09:58:56;;;;;;;69.75;64.18;;;;;;;18.98;49.96;102108.44;5028451;28;20047;-83
2022/03/28 10:01:25;;;;;;;73.13;67.30;;;;;;;17.45;51.57;102109.94;5027629;28;20104;-85
2022/03/28 10:03:55;;;;;;;72.75;66.97;;;;;;;16.86;51.34;102108.47;5027462;28;20058;-85
2022/03/28 10:06:23;;;;;;;75.47;69.70;;;;;;;16.47;53.20;102105.69;5021388;28;20049;-81
2022/03/28 10:08:50;;;;;;;70.95;65.25;;;;;;;16.35;61.13;102106.56;5023388;28;20045;-80
2022/03/28 10:11:18;;;;;;;72.10;66.38;;;;;;;20.06;48.71;102098.41;5023438;28;20406;-83
2022/03/28 10:13:45;;;;;;;75.18;68.75;;;;;;;18.53;50.57;102088.06;5031305;28;20107;-84
2022/03/28 10:16:12;;;;;;;75.43;69.13;;;;;;;14.38;56.40;102091.63;5023904;28;20054;-80
2022/03/28 10:18:40;;;;;;;78.93;72.93;;;;;;;15.77;56.43;102089.34;5028067;28;20049;-82
2022/03/28 10:21:15;;;;;;;76.68;70.68;;;;;;;15.58;56.04;102087.44;5029207;28;20107;-81
2022/03/28 10:23:47;;;;;;;76.50;70.43;;;;;;;15.75;59.78;102078.00;5030850;28;20041;-82
2022/03/28 10:26:14;;;;;;;75.18;69.18;;;;;;;16.56;52.18;102075.97;5030634;28;20513;-81
2022/03/28 10:28:41;;;;;;;68.15;62.88;;;;;;;17.69;52.04;102081.44;5028817;28;20053;-82
2022/03/28 10:31:09;;;;;;;72.25;66.85;;;;;;;16.10;51.83;102068.91;5031372;28;20103;-84
2022/03/28 10:33:47;;;;;;;75.68;69.78;;;;;;;16.27;54.64;102064.72;5028100;28;20112;-84
2022/03/28 10:36:24;;;;;;;76.50;70.32;;;;;;;18.17;53.00;102070.06;5030944;28;20472;-83
2022/03/28 10:38:51;;;;;;;78.35;72.13;;;;;;;16.51;53.14;102054.31;5030974;28;20485;-86
2022/03/28 10:41:19;;;;;;;76.97;70.82;;;;;;;15.96;54.02;102066.22;5027943;28;20095;-86
2022/03/28 10:43:46;;;;;;;78.43;71.32;;;;;;;14.87;56.62;102066.56;5032886;28;20049;-85
2022/03/28 10:46:14;;;;;;;80.93;73.65;;;;;;;18.45;52.20;102057.94;5032171;28;20049;-84
2022/03/28 10:48:43;;;;;;;81.05;74.10;;;;;;;17.65;50.01;102049.88;5028080;28;20057;-84
2022/03/28 10:51:11;;;;;;;80.78;73.78;;;;;;;18.88;48.68;102046.22;5030822;28;20058;-84
2022/03/28 10:53:41;;;;;;;78.65;72.07;;;;;;;17.17;50.30;102045.94;5027528;28;20056;-83
2022/03/28 10:56:13;;;;;;;81.57;74.55;;;;;;;15.63;54.99;102050.16;5031998;28;20060;-83
2022/03/28 10:58:42;;;;;;;80.78;73.93;;;;;;;15.56;54.89;102050.19;5030392;28;20069;-83
2022/03/28 11:01:29;;;;;;;79.05;71.57;;;;;;;16.84;55.92;102036.22;5030801;28;20042;-83
2022/03/28 11:04:02;;;;;;;79.78;72.93;;;;;;;17.01;50.45;102023.13;5026723;28;20052;-84
2022/03/28 11:07:01;;;;;;;75.20;68.30;;;;;;;16.47;52.42;102025.25;5029460;28;20571;-81
2022/03/28 11:09:43;;;;;;;79.07;71.63;;;;;;;19.61;48.14;102016.25;5029945;28;20057;-81
2022/03/28 11:12:12;;;;;;;80.60;72.80;;;;;;;18.60;45.68;101993.78;5029157;28;20045;-83
2022/03/28 11:14:41;;;;;;;78.80;71.50;;;;;;;17.51;46.85;102007.00;5032858;28;20042;-81
2022/03/28 11:17:20;;;;;;;77.60;70.63;;;;;;;17.01;49.68;102003.53;5028831;28;20115;-83
2022/03/28 11:19:58;;;;;;;78.68;71.47;;;;;;;18.41;44.95;101993.03;5028694;28;20099;-84
2022/03/28 11:22:56;;;;;;;73.43;66.97;;;;;;;17.05;51.94;101994.81;5030043;28;20118;-84
2022/03/28 11:25:46;;;;;;;81.32;73.82;;;;;;;21.14;44.10;101986.06;5029357;28;20061;-84
2022/03/28 11:28:18;;;;;;;86.38;78.97;;;;;;;20.16;43.54;101982.69;5026975;28;20065;-83
2022/03/28 11:30:55;;;;;;;84.97;77.15;;;;;;;22.02;45.25;101966.50;5030342;28;20045;-85
2022/03/28 11:33:24;;;;;;;83.47;75.85;;;;;;;21.79;40.86;101964.88;5030103;28;20053;-85
2022/03/28 11:35:54;;;;;;;77.03;69.70;;;;;;;21.95;39.80;101958.59;5030143;28;20046;-84
2022/03/28 11:38:23;;;;;;;82.82;74.90;;;;;;;18.20;43.67;101954.00;5029004;28;20148;-83
2022/03/28 11:40:52;;;;;;;81.25;73.47;;;;;;;20.05;44.43;101951.97;5029345;28;20479;-81
2022/03/28 11:43:27;;;;;;;80.22;72.28;;;;;;;20.96;41.85;101952.03;5025970;28;20046;-81
2022/03/28 11:45:55;;;;;;;80.30;72.43;;;;;;;18.30;46.96;101940.00;5030383;28;20524;-84
2022/03/28 11:48:22;;;;;;;78.93;71.40;;;;;;;19.24;49.08;101932.16;5028587;28;20061;-84
2022/03/28 11:50:48;;;;;;;78.25;70.90;;;;;;;19.76;45.59;101932.25;5026550;28;20049;-85
2022/03/28 11:53:16;;;;;;;74.90;68.05;;;;;;;19.34;45.20;101923.50;5026871;28;20046;-84
2022/03/28 11:55:53;;;;;;;75.05;68.05;;;;;;;19.09;44.64;101911.09;5027817;28;20046;-82
2022/03/28 11:58:29;;;;;;;75.30;67.90;;;;;;;18.24;45.59;101908.63;5029503;28;20057;-82
2022/03/28 12:01:04;;;;;;;80.28;72.65;;;;;;;21.34;42.18;101901.81;5029742;28;20050;-82
2022/03/28 12:03:31;;;;;;;77.45;70.50;;;;;;;18.71;44.39;101895.34;5028043;28;20586;-83
2022/03/28 12:05:58;;;;;;;77.28;70.05;;;;;;;18.68;44.79;101890.41;5029022;28;20045;-81
2022/03/28 12:08:25;;;;;;;79.35;72.22;;;;;;;20.89;43.38;101888.47;5029870;28;20041;-82
2022/03/28 12:10:54;;;;;;;80.32;72.80;;;;;;;21.41;44.12;101882.75;5028986;28;20071;-85
2022/03/28 12:13:23;;;;;;;78.47;70.88;;;;;;;19.03;44.63;101882.38;5022726;28;20099;-82
2022/03/28 12:15:51;;;;;;;84.00;75.97;;;;;;;20.57;41.08;101867.41;5025970;28;20045;-80
2022/03/28 12:18:20;;;;;;;79.97;72.85;;;;;;;19.70;42.70;101873.91;5024042;28;20599;-81
2022/03/28 12:20:48;;;;;;;80.68;73.15;;;;;;;17.54;49.47;101860.72;5023549;28;20049;-82
2022/03/28 12:23:17;;;;;;;81.25;73.50;;;;;;;19.44;44.04;101859.88;5025389;28;20046;-85
2022/03/28 12:25:45;;;;;;;80.70;73.22;;;;;;;19.90;45.38;101860.00;5023803;28;20158;-86
2022/03/28 12:28:16;;;;;;;80.45;72.63;;;;;;;19.48;43.20;101851.31;5024742;28;20049;-85
2022/03/28 12:30:46;;;;;;;79.93;72.60;;;;;;;20.52;41.63;101845.78;5025012;28;20137;-85
2022/03/28 12:33:17;;;;;;;49.83;45.72;;;;;;;18.09;45.17;101841.84;5024581;28;20050;-82
2022/03/28 12:35:46;;;;;;;49.88;46.47;;;;;;;19.13;43.78;101850.31;5023247;28;20049;-82
2022/03/28 12:38:18;;;;;;;50.03;45.92;;;;;;;19.70;43.42;101835.34;5023929;28;20057;-83
2022/03/28 12:40:46;;;;;;;52.50;48.65;;;;;;;19.07;43.68;101839.69;5024273;28;20520;-81
2022/03/28 12:43:16;;;;;;;54.22;50.25;;;;;;;21.62;41.82;101833.28;5025226;28;20100;-86
2022/03/28 12:45:43;;;;;;;50.00;46.10;;;;;;;18.47;44.81;101830.72;5029898;28;20416;-82
2022/03/28 12:48:12;;;;;;;50.97;47.28;;;;;;;20.27;44.56;101821.81;5030143;28;20103;-82
2022/03/28 12:50:52;;;;;;;48.58;44.63;;;;;;;20.20;42.65;101816.59;5030181;28;20051;-82
2022/03/28 12:53:19;;;;;;;49.13;45.53;;;;;;;19.70;45.59;101817.31;5027981;28;20504;-84
2022/03/28 12:55:47;;;;;;;48.92;44.92;;;;;;;19.38;43.86;101816.91;5025064;28;20452;-82
2022/03/28 12:58:15;;;;;;;47.08;43.33;;;;;;;20.65;45.25;101809.53;5027114;28;20045;-85
2022/03/28 13:00:44;;;;;;;46.45;42.40;;;;;;;21.87;41.54;101802.97;5026390;28;20084;-81
2022/03/28 13:03:28;;;;;;;45.08;41.33;;;;;;;19.74;43.70;101796.09;5027003;28;20505;-83
2022/03/28 13:06:06;;;;;;;71.93;66.22;;;;;;;18.70;46.75;101789.56;5029031;28;20084;-83
2022/03/28 13:08:34;;;;;;;83.60;76.50;;;;;;;20.17;43.16;101782.03;5025504;28;20042;-85
2022/03/28 13:11:12;;;;;;;82.18;74.93;;;;;;;20.18;43.29;101778.25;5028395;28;20152;-83
2022/03/28 13:13:40;;;;;;;88.07;80.57;;;;;;;20.53;42.58;101777.22;5028967;28;20053;-82
2022/03/28 13:16:07;;;;;;;90.85;83.40;;;;;;;20.01;42.49;101767.47;5028900;28;20584;-83
2022/03/28 13:18:35;;;;;;;93.53;85.90;;;;;;;20.56;41.37;101772.16;5026737;28;20123;-83
2022/03/28 13:21:02;;;;;;;89.05;81.32;;;;;;;19.76;43.17;101772.38;5028522;28;20441;-85
2022/03/28 13:23:34;;;;;;;85.32;77.15;;;;;;;19.59;43.21;101758.84;5028429;28;20127;-81
2022/03/28 13:26:14;;;;;;;87.05;79.57;;;;;;;18.02;44.97;101757.78;5025913;28;20427;-83
2022/03/28 13:28:47;;;;;;;89.07;81.05;;;;;;;19.93;43.30;101756.25;5028014;28;20046;-84
2022/03/28 13:31:14;;;;;;;95.55;87.38;;;;;;;19.68;44.09;101760.94;5028996;28;20045;-82
2022/03/28 13:33:41;;;;;;;90.50;82.55;;;;;;;19.22;43.13;101748.44;5025075;28;20076;-81
2022/03/28 13:36:08;;;;;;;90.13;81.75;;;;;;;20.79;41.54;101744.16;5029843;28;20079;-81
2022/03/28 13:38:39;;;;;;;86.38;78.78;;;;;;;21.45;39.72;101746.03;5028307;28;20045;-80
2022/03/28 13:41:06;;;;;;;89.13;80.70;;;;;;;20.35;41.79;101749.41;5029388;28;20049;-79
2022/03/28 13:43:34;;;;;;;87.05;79.15;;;;;;;22.33;40.35;101734.94;5031300;28;20487;-82
2022/03/28 13:46:03;;;;;;;92.05;84.22;;;;;;;22.91;38.08;101732.34;5032494;28;20132;-82
2022/03/28 13:48:30;;;;;;;91.88;83.68;;;;;;;21.66;39.87;101730.84;5029272;28;20049;-80
2022/03/28 13:50:58;;;;;;;87.32;79.30;;;;;;;20.11;39.60;101724.47;5030663;28;20297;-79
2022/03/28 13:53:26;;;;;;;91.25;82.75;;;;;;;20.97;38.53;101723.31;5029968;28;20053;-81
2022/03/28 13:55:53;;;;;;;95.55;87.55;;;;;;;20.46;39.50;101719.91;5032142;28;20053;-82
2022/03/28 13:58:19;;;;;;;89.35;81.47;;;;;;;20.28;40.08;101727.19;5029006;28;20148;-83
2022/03/28 14:00:47;;;;;;;93.13;84.82;;;;;;;21.62;38.10;101725.16;5032542;28;20107;-84
2022/03/28 14:03:16;;;;;;;94.97;86.15;;;;;;;20.95;38.92;101723.56;5032756;28;20140;-81
2022/03/28 14:05:49;;;;;;;90.45;82.68;;;;;;;21.35;38.03;101722.41;5033537;28;20046;-85
2022/03/28 14:08:16;;;;;;;89.70;81.68;;;;;;;19.62;40.80;101715.25;5033123;28;20574;-84
2022/03/28 14:10:44;;;;;;;82.00;74.50;;;;;;;20.35;40.30;101718.91;5032376;28;20052;-81
2022/03/28 14:13:11;;;;;;;80.28;72.72;;;;;;;20.02;41.14;101712.47;5030198;28;20076;-84
2022/03/28 14:15:38;;;;;;;79.88;72.03;;;;;;;20.44;42.06;101705.84;5034170;28;20124;-81
2022/03/28 14:18:05;;;;;;;84.47;76.38;;;;;;;18.86;42.28;101698.44;5034147;28;20054;-84
2022/03/28 14:20:33;;;;;;;85.75;77.80;;;;;;;18.72;43.14;101703.22;5029605;28;20045;-84
2022/03/28 14:23:01;;;;;;;78.53;70.82;;;;;;;18.56;42.78;101702.06;5031531;28;20107;-83
2022/03/28 14:25:28;;;;;;;84.05;76.05;;;;;;;19.74;42.35;101689.09;5031325;28;20041;-82
2022/03/28 14:27:55;;;;;;;81.68;74.07;;;;;;;19.45;41.88;101680.19;5031844;28;20152;-82
2022/03/28 14:30:21;;;;;;;79.30;71.68;;;;;;;19.00;43.28;101678.25;5034329;28;20071;-83
2022/03/28 14:32:48;;;;;;;79.80;72.53;;;;;;;18.96;43.35;101675.22;5031104;28;20091;-81
2022/03/28 14:35:15;;;;;;;80.60;72.93;;;;;;;18.35;44.90;101667.69;5028813;28;20053;-82
2022/03/28 14:37:43;;;;;;;80.85;73.28;;;;;;;18.62;43.77;101666.16;5030894;28;20516;-82
2022/03/28 14:40:11;;;;;;;80.40;73.15;;;;;;;18.87;44.15;101673.16;5033106;28;20049;-81
2022/03/28 14:42:40;;;;;;;77.25;70.32;;;;;;;18.47;44.90;101672.00;5028517;28;20456;-85
2022/03/28 14:45:09;;;;;;;80.70;73.72;;;;;;;17.98;44.61;101667.94;5034478;28;20516;-84
2022/03/28 14:47:37;;;;;;;81.30;73.82;;;;;;;18.22;44.76;101660.69;5042574;28;20107;-82